sensor_id;sensor_type;location;lat;lon;timestamp;temperature;humidity
46508;DHT22;32223;53.654;10.014;2023-12-14T00:02:20;3.70;99.90
46508;DHT22;32223;53.654;10.014;2023-12-14T00:04:46;3.70;99.90
46508;DHT22;32223;53.654;10.014;2023-12-14T00:07:11;3.70;99.90
46508;DHT22;32223;53.654;10.014;2023-12-14T00:09:40;3.80;99.90
46508;DHT22;32223;53.654;10.014;2023-12-14T00:12:05;3.80;99.90
46508;DHT22;32223;53.654;10.014;2023-12-14T00:14:31;3.80;99.90
46508;DHT22;32223;53.654;10.014;2023-12-14T00:16:57;3.80;99.90
46508;DHT22;32223;53.654;10.014;2023-12-14T00:19:24;3.80;99.90
46508;DHT22;32223;53.654;10.014;2023-12-14T00:21:50;3.80;99.90
46508;DHT22;32223;53.654;10.014;2023-12-14T00:24:15;3.80;99.90
46508;DHT22;32223;53.654;10.014;2023-12-14T00:26:41;3.90;99.90
46508;DHT22;32223;53.654;10.014;2023-12-14T00:29:07;3.90;99.90
46508;DHT22;32223;53.654;10.014;2023-12-14T00:31:32;3.90;99.90
46508;DHT22;32223;53.654;10.014;2023-12-14T00:33:58;4.00;99.90
46508;DHT22;32223;53.654;10.014;2023-12-14T00:36:23;4.00;99.90
46508;DHT22;32223;53.654;10.014;2023-12-14T00:38:49;4.00;99.90
46508;DHT22;32223;53.654;10.014;2023-12-14T00:41:14;4.00;99.90
46508;DHT22;32223;53.654;10.014;2023-12-14T00:43:40;4.00;99.90
46508;DHT22;32223;53.654;10.014;2023-12-14T00:46:07;4.00;99.90
46508;DHT22;32223;53.654;10.014;2023-12-14T00:48:32;4.00;99.90
46508;DHT22;32223;53.654;10.014;2023-12-14T00:50:58;4.00;99.90
46508;DHT22;32223;53.654;10.014;2023-12-14T00:53:23;4.00;99.90
46508;DHT22;32223;53.654;10.014;2023-12-14T00:55:49;4.00;99.90
46508;DHT22;32223;53.654;10.014;2023-12-14T00:58:15;4.00;99.90
46508;DHT22;32223;53.654;10.014;2023-12-14T01:00:41;4.00;99.90
46508;DHT22;32223;53.654;10.014;2023-12-14T01:03:07;4.00;99.90
46508;DHT22;32223;53.654;10.014;2023-12-14T01:05:32;4.00;99.90
46508;DHT22;32223;53.654;10.014;2023-12-14T01:07:58;4.00;99.90
46508;DHT22;32223;53.654;10.014;2023-12-14T01:10:23;4.00;99.90
46508;DHT22;32223;53.654;10.014;2023-12-14T01:12:49;4.00;99.90
46508;DHT22;32223;53.654;10.014;2023-12-14T01:15:15;4.00;99.90
46508;DHT22;32223;53.654;10.014;2023-12-14T01:17:41;4.00;99.90
46508;DHT22;32223;53.654;10.014;2023-12-14T01:20:07;4.00;99.90
46508;DHT22;32223;53.654;10.014;2023-12-14T01:22:33;4.00;99.90
46508;DHT22;32223;53.654;10.014;2023-12-14T01:24:59;4.00;99.90
46508;DHT22;32223;53.654;10.014;2023-12-14T01:27:25;4.10;99.90
46508;DHT22;32223;53.654;10.014;2023-12-14T01:29:50;4.00;99.90
46508;DHT22;32223;53.654;10.014;2023-12-14T01:32:16;4.00;99.90
46508;DHT22;32223;53.654;10.014;2023-12-14T01:34:42;4.00;99.90
46508;DHT22;32223;53.654;10.014;2023-12-14T01:37:07;4.00;99.90
46508;DHT22;32223;53.654;10.014;2023-12-14T01:39:33;4.00;99.90
46508;DHT22;32223;53.654;10.014;2023-12-14T01:41:59;4.00;99.90
46508;DHT22;32223;53.654;10.014;2023-12-14T01:44:24;4.00;99.90
46508;DHT22;32223;53.654;10.014;2023-12-14T01:46:50;4.10;99.90
46508;DHT22;32223;53.654;10.014;2023-12-14T01:49:15;4.00;99.90
46508;DHT22;32223;53.654;10.014;2023-12-14T01:51:41;4.00;99.90
46508;DHT22;32223;53.654;10.014;2023-12-14T01:54:06;4.00;99.90
46508;DHT22;32223;53.654;10.014;2023-12-14T01:56:32;4.00;99.90
46508;DHT22;32223;53.654;10.014;2023-12-14T01:58:58;4.00;99.90
46508;DHT22;32223;53.654;10.014;2023-12-14T02:03:53;4.00;99.90
46508;DHT22;32223;53.654;10.014;2023-12-14T02:06:20;4.10;99.90
46508;DHT22;32223;53.654;10.014;2023-12-14T02:08:45;4.10;99.90
46508;DHT22;32223;53.654;10.014;2023-12-14T02:11:11;4.10;99.90
46508;DHT22;32223;53.654;10.014;2023-12-14T02:13:37;4.00;99.90
46508;DHT22;32223;53.654;10.014;2023-12-14T02:16:03;4.10;99.90
46508;DHT22;32223;53.654;10.014;2023-12-14T02:18:29;4.10;99.90
46508;DHT22;32223;53.654;10.014;2023-12-14T02:20:54;4.10;99.90
46508;DHT22;32223;53.654;10.014;2023-12-14T02:23:20;4.00;99.90
46508;DHT22;32223;53.654;10.014;2023-12-14T02:25:46;4.00;99.90
46508;DHT22;32223;53.654;10.014;2023-12-14T02:28:11;4.00;99.90
46508;DHT22;32223;53.654;10.014;2023-12-14T02:30:37;4.00;99.90
46508;DHT22;32223;53.654;10.014;2023-12-14T02:33:02;4.00;99.90
46508;DHT22;32223;53.654;10.014;2023-12-14T02:35:28;4.00;99.90
46508;DHT22;32223;53.654;10.014;2023-12-14T02:37:54;4.00;99.90
46508;DHT22;32223;53.654;10.014;2023-12-14T02:40:19;4.00;99.90
46508;DHT22;32223;53.654;10.014;2023-12-14T02:42:45;4.00;99.90
46508;DHT22;32223;53.654;10.014;2023-12-14T02:45:11;4.00;99.90
46508;DHT22;32223;53.654;10.014;2023-12-14T02:47:36;4.00;99.90
46508;DHT22;32223;53.654;10.014;2023-12-14T02:50:02;4.00;99.90
46508;DHT22;32223;53.654;10.014;2023-12-14T02:52:28;4.00;99.90
46508;DHT22;32223;53.654;10.014;2023-12-14T02:54:53;4.00;99.90
46508;DHT22;32223;53.654;10.014;2023-12-14T02:57:19;4.00;99.90
46508;DHT22;32223;53.654;10.014;2023-12-14T02:59:44;3.90;99.90
46508;DHT22;32223;53.654;10.014;2023-12-14T03:02:10;4.00;99.90
46508;DHT22;32223;53.654;10.014;2023-12-14T03:04:38;4.00;99.90
46508;DHT22;32223;53.654;10.014;2023-12-14T03:07:05;4.00;99.90
46508;DHT22;32223;53.654;10.014;2023-12-14T03:09:31;3.90;99.90
46508;DHT22;32223;53.654;10.014;2023-12-14T03:11:56;4.00;99.90
46508;DHT22;32223;53.654;10.014;2023-12-14T03:14:23;3.90;99.90
46508;DHT22;32223;53.654;10.014;2023-12-14T03:16:48;3.90;99.90
46508;DHT22;32223;53.654;10.014;2023-12-14T03:19:14;3.90;99.90
46508;DHT22;32223;53.654;10.014;2023-12-14T03:21:41;4.00;99.90
46508;DHT22;32223;53.654;10.014;2023-12-14T03:24:07;3.90;99.90
46508;DHT22;32223;53.654;10.014;2023-12-14T03:26:32;3.90;99.90
46508;DHT22;32223;53.654;10.014;2023-12-14T03:28:58;3.90;99.90
46508;DHT22;32223;53.654;10.014;2023-12-14T03:31:24;3.90;99.90
46508;DHT22;32223;53.654;10.014;2023-12-14T03:33:49;3.90;99.90
46508;DHT22;32223;53.654;10.014;2023-12-14T03:36:15;3.90;99.90
46508;DHT22;32223;53.654;10.014;2023-12-14T03:38:40;3.90;99.90
46508;DHT22;32223;53.654;10.014;2023-12-14T03:41:06;3.90;99.90
46508;DHT22;32223;53.654;10.014;2023-12-14T03:43:32;3.90;99.90
46508;DHT22;32223;53.654;10.014;2023-12-14T03:45:57;3.90;99.90
46508;DHT22;32223;53.654;10.014;2023-12-14T03:48:23;3.90;99.90
46508;DHT22;32223;53.654;10.014;2023-12-14T03:50:48;3.90;99.90
46508;DHT22;32223;53.654;10.014;2023-12-14T03:53:14;3.90;99.90
46508;DHT22;32223;53.654;10.014;2023-12-14T03:55:39;3.90;99.90
46508;DHT22;32223;53.654;10.014;2023-12-14T03:58:05;3.90;99.90
46508;DHT22;32223;53.654;10.014;2023-12-14T04:00:31;3.90;99.90
46508;DHT22;32223;53.654;10.014;2023-12-14T04:02:56;4.00;99.90
46508;DHT22;32223;53.654;10.014;2023-12-14T04:05:22;4.00;99.90
46508;DHT22;32223;53.654;10.014;2023-12-14T04:07:48;4.00;99.90
46508;DHT22;32223;53.654;10.014;2023-12-14T04:10:13;4.00;99.90
46508;DHT22;32223;53.654;10.014;2023-12-14T04:12:39;4.00;99.90
46508;DHT22;32223;53.654;10.014;2023-12-14T04:15:07;4.00;99.90
46508;DHT22;32223;53.654;10.014;2023-12-14T04:17:33;3.90;99.90
46508;DHT22;32223;53.654;10.014;2023-12-14T04:20:00;3.90;99.90
46508;DHT22;32223;53.654;10.014;2023-12-14T04:22:26;3.90;99.90
46508;DHT22;32223;53.654;10.014;2023-12-14T04:24:52;3.90;99.90
46508;DHT22;32223;53.654;10.014;2023-12-14T04:27:18;3.90;99.90
46508;DHT22;32223;53.654;10.014;2023-12-14T04:29:44;3.90;99.90
46508;DHT22;32223;53.654;10.014;2023-12-14T04:32:09;3.90;99.90
46508;DHT22;32223;53.654;10.014;2023-12-14T04:34:35;3.90;99.90
46508;DHT22;32223;53.654;10.014;2023-12-14T04:37:01;3.80;99.90
46508;DHT22;32223;53.654;10.014;2023-12-14T04:39:27;3.80;99.90
46508;DHT22;32223;53.654;10.014;2023-12-14T04:41:53;3.80;99.90
46508;DHT22;32223;53.654;10.014;2023-12-14T04:44:20;3.80;99.90
46508;DHT22;32223;53.654;10.014;2023-12-14T04:46:50;3.70;99.90
46508;DHT22;32223;53.654;10.014;2023-12-14T04:49:16;3.70;99.90
46508;DHT22;32223;53.654;10.014;2023-12-14T04:51:42;3.70;99.90
46508;DHT22;32223;53.654;10.014;2023-12-14T04:54:08;3.70;99.90
46508;DHT22;32223;53.654;10.014;2023-12-14T04:56:34;3.70;99.90
46508;DHT22;32223;53.654;10.014;2023-12-14T04:59:00;3.70;99.90
46508;DHT22;32223;53.654;10.014;2023-12-14T05:01:25;3.70;99.90
46508;DHT22;32223;53.654;10.014;2023-12-14T05:03:54;3.70;99.90
46508;DHT22;32223;53.654;10.014;2023-12-14T05:06:20;3.70;99.90
46508;DHT22;32223;53.654;10.014;2023-12-14T05:08:46;3.60;99.90
46508;DHT22;32223;53.654;10.014;2023-12-14T05:11:13;3.60;99.90
46508;DHT22;32223;53.654;10.014;2023-12-14T05:13:39;3.60;99.90
46508;DHT22;32223;53.654;10.014;2023-12-14T05:16:05;3.60;99.90
46508;DHT22;32223;53.654;10.014;2023-12-14T05:18:31;3.60;99.90
46508;DHT22;32223;53.654;10.014;2023-12-14T05:20:56;3.60;99.90
46508;DHT22;32223;53.654;10.014;2023-12-14T05:23:22;3.60;99.90
46508;DHT22;32223;53.654;10.014;2023-12-14T05:25:49;3.60;99.90
46508;DHT22;32223;53.654;10.014;2023-12-14T05:28:15;3.70;99.90
46508;DHT22;32223;53.654;10.014;2023-12-14T05:30:40;3.80;99.90
46508;DHT22;32223;53.654;10.014;2023-12-14T05:33:07;3.80;99.90
46508;DHT22;32223;53.654;10.014;2023-12-14T05:35:32;3.80;99.90
46508;DHT22;32223;53.654;10.014;2023-12-14T05:37:58;3.70;99.90
46508;DHT22;32223;53.654;10.014;2023-12-14T05:40:24;3.60;99.90
46508;DHT22;32223;53.654;10.014;2023-12-14T05:42:49;3.60;99.90
46508;DHT22;32223;53.654;10.014;2023-12-14T05:45:15;3.50;99.90
46508;DHT22;32223;53.654;10.014;2023-12-14T05:47:41;3.50;99.90
46508;DHT22;32223;53.654;10.014;2023-12-14T05:50:07;3.50;99.90
46508;DHT22;32223;53.654;10.014;2023-12-14T05:52:35;3.50;99.90
46508;DHT22;32223;53.654;10.014;2023-12-14T05:55:01;3.50;99.90
46508;DHT22;32223;53.654;10.014;2023-12-14T05:57:27;3.50;99.90
46508;DHT22;32223;53.654;10.014;2023-12-14T05:59:52;3.50;99.90
46508;DHT22;32223;53.654;10.014;2023-12-14T06:02:18;3.40;99.90
46508;DHT22;32223;53.654;10.014;2023-12-14T06:04:44;3.40;99.90
46508;DHT22;32223;53.654;10.014;2023-12-14T06:07:10;3.40;99.90
46508;DHT22;32223;53.654;10.014;2023-12-14T06:09:35;3.40;99.90
46508;DHT22;32223;53.654;10.014;2023-12-14T06:12:02;3.40;99.90
46508;DHT22;32223;53.654;10.014;2023-12-14T06:14:28;3.40;99.90
46508;DHT22;32223;53.654;10.014;2023-12-14T06:16:54;3.40;99.90
46508;DHT22;32223;53.654;10.014;2023-12-14T06:19:19;3.40;99.90
46508;DHT22;32223;53.654;10.014;2023-12-14T06:21:45;3.40;99.90
46508;DHT22;32223;53.654;10.014;2023-12-14T06:24:11;3.30;99.90
46508;DHT22;32223;53.654;10.014;2023-12-14T06:26:41;3.40;99.90
46508;DHT22;32223;53.654;10.014;2023-12-14T06:29:08;3.40;99.90
46508;DHT22;32223;53.654;10.014;2023-12-14T06:31:34;3.40;99.90
46508;DHT22;32223;53.654;10.014;2023-12-14T06:33:59;3.40;99.90
46508;DHT22;32223;53.654;10.014;2023-12-14T06:36:28;3.40;99.90
46508;DHT22;32223;53.654;10.014;2023-12-14T06:38:55;3.40;99.90
46508;DHT22;32223;53.654;10.014;2023-12-14T06:41:22;3.40;99.90
46508;DHT22;32223;53.654;10.014;2023-12-14T06:43:48;3.50;99.90
46508;DHT22;32223;53.654;10.014;2023-12-14T06:46:14;3.50;99.90
46508;DHT22;32223;53.654;10.014;2023-12-14T06:48:39;3.50;99.90
46508;DHT22;32223;53.654;10.014;2023-12-14T06:51:05;3.40;99.90
46508;DHT22;32223;53.654;10.014;2023-12-14T06:53:31;3.50;99.90
46508;DHT22;32223;53.654;10.014;2023-12-14T06:55:56;3.50;99.90
46508;DHT22;32223;53.654;10.014;2023-12-14T06:58:22;3.50;99.90
46508;DHT22;32223;53.654;10.014;2023-12-14T07:00:48;3.50;99.90
46508;DHT22;32223;53.654;10.014;2023-12-14T07:03:13;3.50;99.90
46508;DHT22;32223;53.654;10.014;2023-12-14T07:05:39;3.50;99.90
46508;DHT22;32223;53.654;10.014;2023-12-14T07:08:05;3.40;99.90
46508;DHT22;32223;53.654;10.014;2023-12-14T07:10:31;3.40;99.90
46508;DHT22;32223;53.654;10.014;2023-12-14T07:12:56;3.40;99.90
46508;DHT22;32223;53.654;10.014;2023-12-14T07:15:22;3.40;99.90
46508;DHT22;32223;53.654;10.014;2023-12-14T07:17:48;3.40;99.90
46508;DHT22;32223;53.654;10.014;2023-12-14T07:20:13;3.40;99.90
46508;DHT22;32223;53.654;10.014;2023-12-14T07:22:39;3.40;99.90
46508;DHT22;32223;53.654;10.014;2023-12-14T07:25:04;3.40;99.90
46508;DHT22;32223;53.654;10.014;2023-12-14T07:27:30;3.40;99.90
46508;DHT22;32223;53.654;10.014;2023-12-14T07:29:56;3.50;99.90
46508;DHT22;32223;53.654;10.014;2023-12-14T07:32:21;3.50;99.90
46508;DHT22;32223;53.654;10.014;2023-12-14T07:34:47;3.50;99.90
46508;DHT22;32223;53.654;10.014;2023-12-14T07:37:13;3.50;99.90
46508;DHT22;32223;53.654;10.014;2023-12-14T07:39:39;3.40;99.90
46508;DHT22;32223;53.654;10.014;2023-12-14T07:42:04;3.50;99.90
46508;DHT22;32223;53.654;10.014;2023-12-14T07:44:31;3.40;99.90
46508;DHT22;32223;53.654;10.014;2023-12-14T07:47:00;3.40;99.90
46508;DHT22;32223;53.654;10.014;2023-12-14T07:49:26;3.40;99.90
46508;DHT22;32223;53.654;10.014;2023-12-14T07:51:51;3.50;99.90
46508;DHT22;32223;53.654;10.014;2023-12-14T07:54:17;3.50;99.90
46508;DHT22;32223;53.654;10.014;2023-12-14T07:56:44;3.50;99.90
46508;DHT22;32223;53.654;10.014;2023-12-14T07:59:09;3.50;99.90
46508;DHT22;32223;53.654;10.014;2023-12-14T08:01:35;3.50;99.90
46508;DHT22;32223;53.654;10.014;2023-12-14T08:04:01;3.50;99.90
46508;DHT22;32223;53.654;10.014;2023-12-14T08:06:27;3.50;99.90
46508;DHT22;32223;53.654;10.014;2023-12-14T08:08:52;3.50;99.90
46508;DHT22;32223;53.654;10.014;2023-12-14T08:11:18;3.50;99.90
46508;DHT22;32223;53.654;10.014;2023-12-14T08:13:44;3.50;99.90
46508;DHT22;32223;53.654;10.014;2023-12-14T08:16:09;3.40;99.90
46508;DHT22;32223;53.654;10.014;2023-12-14T08:18:37;3.40;99.90
46508;DHT22;32223;53.654;10.014;2023-12-14T08:21:03;3.40;99.90
46508;DHT22;32223;53.654;10.014;2023-12-14T08:23:29;3.50;99.90
46508;DHT22;32223;53.654;10.014;2023-12-14T08:25:56;3.50;99.90
46508;DHT22;32223;53.654;10.014;2023-12-14T08:28:25;3.50;99.90
46508;DHT22;32223;53.654;10.014;2023-12-14T08:30:51;3.50;99.90
46508;DHT22;32223;53.654;10.014;2023-12-14T08:33:17;3.50;99.90
46508;DHT22;32223;53.654;10.014;2023-12-14T08:35:43;3.60;99.90
46508;DHT22;32223;53.654;10.014;2023-12-14T08:38:09;3.60;99.90
46508;DHT22;32223;53.654;10.014;2023-12-14T08:40:36;3.60;99.90
46508;DHT22;32223;53.654;10.014;2023-12-14T08:43:01;3.60;99.90
46508;DHT22;32223;53.654;10.014;2023-12-14T08:45:28;3.60;99.90
46508;DHT22;32223;53.654;10.014;2023-12-14T08:47:54;3.60;99.90
46508;DHT22;32223;53.654;10.014;2023-12-14T08:50:19;3.70;99.90
46508;DHT22;32223;53.654;10.014;2023-12-14T08:52:45;3.70;99.90
46508;DHT22;32223;53.654;10.014;2023-12-14T08:55:11;3.70;99.90
46508;DHT22;32223;53.654;10.014;2023-12-14T08:57:37;3.70;99.90
46508;DHT22;32223;53.654;10.014;2023-12-14T09:00:02;3.70;99.90
46508;DHT22;32223;53.654;10.014;2023-12-14T09:02:32;3.70;99.90
46508;DHT22;32223;53.654;10.014;2023-12-14T09:04:58;3.70;99.90
46508;DHT22;32223;53.654;10.014;2023-12-14T09:07:23;3.70;99.90
46508;DHT22;32223;53.654;10.014;2023-12-14T09:09:49;3.70;99.90
46508;DHT22;32223;53.654;10.014;2023-12-14T09:12:15;3.70;99.90
46508;DHT22;32223;53.654;10.014;2023-12-14T09:14:40;3.70;99.90
46508;DHT22;32223;53.654;10.014;2023-12-14T09:17:06;3.80;99.90
46508;DHT22;32223;53.654;10.014;2023-12-14T09:19:32;3.80;99.90
46508;DHT22;32223;53.654;10.014;2023-12-14T09:21:58;3.80;99.90
46508;DHT22;32223;53.654;10.014;2023-12-14T09:24:23;3.80;99.90
46508;DHT22;32223;53.654;10.014;2023-12-14T09:26:49;3.80;99.90
46508;DHT22;32223;53.654;10.014;2023-12-14T09:29:15;3.90;99.90
46508;DHT22;32223;53.654;10.014;2023-12-14T09:31:42;3.90;99.90
46508;DHT22;32223;53.654;10.014;2023-12-14T09:34:08;3.90;99.90
46508;DHT22;32223;53.654;10.014;2023-12-14T09:36:34;3.90;99.90
46508;DHT22;32223;53.654;10.014;2023-12-14T09:38:59;3.80;99.90
46508;DHT22;32223;53.654;10.014;2023-12-14T09:41:25;3.80;99.90
46508;DHT22;32223;53.654;10.014;2023-12-14T09:43:52;3.80;99.90
46508;DHT22;32223;53.654;10.014;2023-12-14T09:46:18;3.80;99.90
46508;DHT22;32223;53.654;10.014;2023-12-14T09:48:46;3.80;99.90
46508;DHT22;32223;53.654;10.014;2023-12-14T09:51:12;3.80;99.90
46508;DHT22;32223;53.654;10.014;2023-12-14T09:53:38;3.80;99.90
46508;DHT22;32223;53.654;10.014;2023-12-14T09:56:04;3.90;99.90
46508;DHT22;32223;53.654;10.014;2023-12-14T09:58:32;3.90;99.90
46508;DHT22;32223;53.654;10.014;2023-12-14T10:00:58;3.90;99.90
46508;DHT22;32223;53.654;10.014;2023-12-14T10:03:27;3.90;99.90
46508;DHT22;32223;53.654;10.014;2023-12-14T10:05:57;3.90;99.90
46508;DHT22;32223;53.654;10.014;2023-12-14T10:08:24;3.90;99.90
46508;DHT22;32223;53.654;10.014;2023-12-14T10:10:52;3.90;99.90
46508;DHT22;32223;53.654;10.014;2023-12-14T10:13:37;4.00;99.90
46508;DHT22;32223;53.654;10.014;2023-12-14T10:16:03;4.00;99.90
46508;DHT22;32223;53.654;10.014;2023-12-14T10:18:31;4.00;99.90
46508;DHT22;32223;53.654;10.014;2023-12-14T10:20:59;4.00;99.90
46508;DHT22;32223;53.654;10.014;2023-12-14T10:23:27;4.10;99.90
46508;DHT22;32223;53.654;10.014;2023-12-14T10:25:53;4.10;99.90
46508;DHT22;32223;53.654;10.014;2023-12-14T10:28:19;4.10;99.90
46508;DHT22;32223;53.654;10.014;2023-12-14T10:30:44;4.10;99.90
46508;DHT22;32223;53.654;10.014;2023-12-14T10:33:10;4.10;99.90
46508;DHT22;32223;53.654;10.014;2023-12-14T10:35:36;4.10;99.90
46508;DHT22;32223;53.654;10.014;2023-12-14T10:38:04;4.10;99.90
46508;DHT22;32223;53.654;10.014;2023-12-14T10:40:34;4.10;99.90
46508;DHT22;32223;53.654;10.014;2023-12-14T10:43:03;4.10;99.90
46508;DHT22;32223;53.654;10.014;2023-12-14T10:45:32;4.10;99.90
46508;DHT22;32223;53.654;10.014;2023-12-14T10:48:00;4.10;99.90
46508;DHT22;32223;53.654;10.014;2023-12-14T10:50:28;4.10;99.90
46508;DHT22;32223;53.654;10.014;2023-12-14T10:52:54;4.10;99.90
46508;DHT22;32223;53.654;10.014;2023-12-14T10:55:25;4.10;99.90
46508;DHT22;32223;53.654;10.014;2023-12-14T10:57:52;4.10;99.90
46508;DHT22;32223;53.654;10.014;2023-12-14T11:00:18;4.10;99.90
46508;DHT22;32223;53.654;10.014;2023-12-14T11:02:47;4.10;99.90
46508;DHT22;32223;53.654;10.014;2023-12-14T11:05:14;4.10;99.90
46508;DHT22;32223;53.654;10.014;2023-12-14T11:07:53;4.10;99.90
46508;DHT22;32223;53.654;10.014;2023-12-14T11:10:42;4.20;99.90
46508;DHT22;32223;53.654;10.014;2023-12-14T11:13:10;4.20;99.90
46508;DHT22;32223;53.654;10.014;2023-12-14T11:15:38;4.20;99.90
46508;DHT22;32223;53.654;10.014;2023-12-14T11:23:16;4.10;99.90
46508;DHT22;32223;53.654;10.014;2023-12-14T11:25:43;4.10;99.90
46508;DHT22;32223;53.654;10.014;2023-12-14T11:28:09;4.10;99.90
46508;DHT22;32223;53.654;10.014;2023-12-14T11:30:35;4.10;99.90
46508;DHT22;32223;53.654;10.014;2023-12-14T11:33:02;4.10;99.90
46508;DHT22;32223;53.654;10.014;2023-12-14T11:35:28;4.20;99.90
46508;DHT22;32223;53.654;10.014;2023-12-14T11:37:53;4.20;99.90
46508;DHT22;32223;53.654;10.014;2023-12-14T11:40:22;4.20;99.90
46508;DHT22;32223;53.654;10.014;2023-12-14T11:43:04;4.20;99.90
46508;DHT22;32223;53.654;10.014;2023-12-14T11:45:39;4.20;99.90
46508;DHT22;32223;53.654;10.014;2023-12-14T11:48:08;4.20;99.90
46508;DHT22;32223;53.654;10.014;2023-12-14T11:50:37;4.30;99.90
46508;DHT22;32223;53.654;10.014;2023-12-14T11:53:03;4.30;99.90
46508;DHT22;32223;53.654;10.014;2023-12-14T11:55:33;4.30;99.90
46508;DHT22;32223;53.654;10.014;2023-12-14T11:57:59;4.30;99.90
46508;DHT22;32223;53.654;10.014;2023-12-14T12:00:26;4.40;99.90
46508;DHT22;32223;53.654;10.014;2023-12-14T12:03:06;4.40;99.90
46508;DHT22;32223;53.654;10.014;2023-12-14T12:05:39;4.30;99.90
46508;DHT22;32223;53.654;10.014;2023-12-14T12:08:05;4.40;99.90
46508;DHT22;32223;53.654;10.014;2023-12-14T12:10:32;4.40;99.90
46508;DHT22;32223;53.654;10.014;2023-12-14T12:13:02;4.30;99.90
46508;DHT22;32223;53.654;10.014;2023-12-14T12:15:33;4.30;99.90
46508;DHT22;32223;53.654;10.014;2023-12-14T12:18:06;4.30;99.90
46508;DHT22;32223;53.654;10.014;2023-12-14T12:20:32;4.30;99.90
46508;DHT22;32223;53.654;10.014;2023-12-14T12:22:58;4.30;99.90
46508;DHT22;32223;53.654;10.014;2023-12-14T12:25:24;4.30;99.90
46508;DHT22;32223;53.654;10.014;2023-12-14T12:27:49;4.20;99.90
46508;DHT22;32223;53.654;10.014;2023-12-14T12:30:15;4.10;99.90
46508;DHT22;32223;53.654;10.014;2023-12-14T12:32:41;4.10;99.90
46508;DHT22;32223;53.654;10.014;2023-12-14T12:35:07;4.10;99.90
46508;DHT22;32223;53.654;10.014;2023-12-14T12:37:33;4.10;99.90
46508;DHT22;32223;53.654;10.014;2023-12-14T12:39:59;4.20;99.90
46508;DHT22;32223;53.654;10.014;2023-12-14T12:42:25;4.20;99.90
46508;DHT22;32223;53.654;10.014;2023-12-14T12:44:51;4.20;99.90
46508;DHT22;32223;53.654;10.014;2023-12-14T12:47:17;4.20;99.90
46508;DHT22;32223;53.654;10.014;2023-12-14T12:49:43;4.20;99.90
46508;DHT22;32223;53.654;10.014;2023-12-14T12:52:09;4.20;99.90
46508;DHT22;32223;53.654;10.014;2023-12-14T12:54:35;4.40;99.90
46508;DHT22;32223;53.654;10.014;2023-12-14T12:57:00;4.30;99.90
46508;DHT22;32223;53.654;10.014;2023-12-14T12:59:26;4.30;99.90
46508;DHT22;32223;53.654;10.014;2023-12-14T13:01:53;4.20;99.90
46508;DHT22;32223;53.654;10.014;2023-12-14T13:04:23;4.10;99.90
46508;DHT22;32223;53.654;10.014;2023-12-14T13:06:49;4.20;99.90
46508;DHT22;32223;53.654;10.014;2023-12-14T13:09:18;4.20;99.90
46508;DHT22;32223;53.654;10.014;2023-12-14T13:11:45;4.20;99.90
46508;DHT22;32223;53.654;10.014;2023-12-14T13:14:11;4.20;99.90
46508;DHT22;32223;53.654;10.014;2023-12-14T13:16:37;4.20;99.90
46508;DHT22;32223;53.654;10.014;2023-12-14T13:19:03;4.20;99.90
46508;DHT22;32223;53.654;10.014;2023-12-14T13:21:30;4.20;99.90
46508;DHT22;32223;53.654;10.014;2023-12-14T13:23:56;4.30;99.90
46508;DHT22;32223;53.654;10.014;2023-12-14T13:26:24;4.20;99.90
46508;DHT22;32223;53.654;10.014;2023-12-14T13:28:51;4.10;99.90
46508;DHT22;32223;53.654;10.014;2023-12-14T13:31:17;4.10;99.90
46508;DHT22;32223;53.654;10.014;2023-12-14T13:33:42;4.10;99.90
46508;DHT22;32223;53.654;10.014;2023-12-14T13:36:08;4.10;99.90
46508;DHT22;32223;53.654;10.014;2023-12-14T13:38:34;4.10;99.90
46508;DHT22;32223;53.654;10.014;2023-12-14T13:41:02;4.10;99.90
46508;DHT22;32223;53.654;10.014;2023-12-14T13:43:28;4.10;99.90
46508;DHT22;32223;53.654;10.014;2023-12-14T13:45:54;4.10;99.90
46508;DHT22;32223;53.654;10.014;2023-12-14T13:48:23;4.10;99.90
46508;DHT22;32223;53.654;10.014;2023-12-14T13:50:50;4.10;99.90
46508;DHT22;32223;53.654;10.014;2023-12-14T13:53:15;4.10;99.90
46508;DHT22;32223;53.654;10.014;2023-12-14T13:55:41;4.10;99.90
46508;DHT22;32223;53.654;10.014;2023-12-14T13:58:06;4.20;99.90
46508;DHT22;32223;53.654;10.014;2023-12-14T14:00:32;4.10;99.90
46508;DHT22;32223;53.654;10.014;2023-12-14T14:03:00;4.10;99.90
46508;DHT22;32223;53.654;10.014;2023-12-14T14:05:25;4.10;99.90
46508;DHT22;32223;53.654;10.014;2023-12-14T14:07:53;4.10;99.90
46508;DHT22;32223;53.654;10.014;2023-12-14T14:10:19;4.10;99.90
46508;DHT22;32223;53.654;10.014;2023-12-14T14:12:45;4.10;99.90
46508;DHT22;32223;53.654;10.014;2023-12-14T14:15:12;4.10;99.90
46508;DHT22;32223;53.654;10.014;2023-12-14T14:17:38;4.10;99.90
46508;DHT22;32223;53.654;10.014;2023-12-14T14:20:04;4.00;99.90
46508;DHT22;32223;53.654;10.014;2023-12-14T14:22:30;4.00;99.90
46508;DHT22;32223;53.654;10.014;2023-12-14T14:24:56;3.90;99.90
46508;DHT22;32223;53.654;10.014;2023-12-14T14:27:22;3.90;99.90
46508;DHT22;32223;53.654;10.014;2023-12-14T14:29:49;3.90;99.90
46508;DHT22;32223;53.654;10.014;2023-12-14T14:32:14;3.90;99.90
46508;DHT22;32223;53.654;10.014;2023-12-14T14:34:42;3.90;99.90
46508;DHT22;32223;53.654;10.014;2023-12-14T14:37:07;3.90;99.90
46508;DHT22;32223;53.654;10.014;2023-12-14T14:39:33;3.90;99.90
46508;DHT22;32223;53.654;10.014;2023-12-14T14:41:59;3.90;99.90
46508;DHT22;32223;53.654;10.014;2023-12-14T14:44:25;3.80;99.90
46508;DHT22;32223;53.654;10.014;2023-12-14T14:46:51;3.80;99.90
46508;DHT22;32223;53.654;10.014;2023-12-14T14:49:17;3.90;99.90
46508;DHT22;32223;53.654;10.014;2023-12-14T14:51:43;3.90;99.90
46508;DHT22;32223;53.654;10.014;2023-12-14T14:54:09;3.90;99.90
46508;DHT22;32223;53.654;10.014;2023-12-14T14:56:35;3.90;99.90
46508;DHT22;32223;53.654;10.014;2023-12-14T14:59:00;3.90;99.90
46508;DHT22;32223;53.654;10.014;2023-12-14T15:01:26;3.90;99.90
46508;DHT22;32223;53.654;10.014;2023-12-14T15:03:51;3.80;99.90
46508;DHT22;32223;53.654;10.014;2023-12-14T15:06:17;3.80;99.90
46508;DHT22;32223;53.654;10.014;2023-12-14T15:08:43;3.80;99.90
46508;DHT22;32223;53.654;10.014;2023-12-14T15:11:08;3.80;99.90
46508;DHT22;32223;53.654;10.014;2023-12-14T15:13:36;3.80;99.90
46508;DHT22;32223;53.654;10.014;2023-12-14T15:16:02;3.70;99.90
46508;DHT22;32223;53.654;10.014;2023-12-14T15:18:28;3.70;99.90
46508;DHT22;32223;53.654;10.014;2023-12-14T15:20:54;3.70;99.90
46508;DHT22;32223;53.654;10.014;2023-12-14T15:23:19;3.60;99.90
46508;DHT22;32223;53.654;10.014;2023-12-14T15:25:45;3.70;99.90
46508;DHT22;32223;53.654;10.014;2023-12-14T15:28:10;3.60;99.90
46508;DHT22;32223;53.654;10.014;2023-12-14T15:30:36;3.50;99.90
46508;DHT22;32223;53.654;10.014;2023-12-14T15:33:02;3.50;99.90